sensor_id;sensor_type;location;lat;lon;timestamp;P1;durP1;ratioP1;P2;durP2;ratioP2
11620;SDS011;5866;49.094;11.900;2023-02-21T00:01:25;25.13;;;23.60;;
11620;SDS011;5866;49.094;11.900;2023-02-21T00:04:10;33.27;;;31.07;;
11620;SDS011;5866;49.094;11.900;2023-02-21T00:06:55;7.40;;;6.57;;
11620;SDS011;5866;49.094;11.900;2023-02-21T00:09:40;18.93;;;17.43;;
11620;SDS011;5866;49.094;11.900;2023-02-21T00:12:25;5.33;;;4.83;;
11620;SDS011;5866;49.094;11.900;2023-02-21T00:15:10;5.97;;;4.93;;
11620;SDS011;5866;49.094;11.900;2023-02-21T00:17:57;11.30;;;10.07;;
11620;SDS011;5866;49.094;11.900;2023-02-21T00:20:42;4.30;;;3.90;;
11620;SDS011;5866;49.094;11.900;2023-02-21T00:23:27;13.97;;;13.00;;
11620;SDS011;5866;49.094;11.900;2023-02-21T00:26:15;8.43;;;6.77;;
11620;SDS011;5866;49.094;11.900;2023-02-21T00:29:00;7.07;;;6.40;;
11620;SDS011;5866;49.094;11.900;2023-02-21T00:31:46;8.27;;;5.43;;
11620;SDS011;5866;49.094;11.900;2023-02-21T00:34:32;7.10;;;5.20;;
11620;SDS011;5866;49.094;11.900;2023-02-21T00:37:18;8.30;;;6.70;;
11620;SDS011;5866;49.094;11.900;2023-02-21T00:40:03;7.23;;;5.83;;
11620;SDS011;5866;49.094;11.900;2023-02-21T00:42:49;12.20;;;11.33;;
11620;SDS011;5866;49.094;11.900;2023-02-21T00:45:34;32.70;;;30.73;;
11620;SDS011;5866;49.094;11.900;2023-02-21T00:48:19;74.73;;;70.50;;
11620;SDS011;5866;49.094;11.900;2023-02-21T00:51:06;96.60;;;91.30;;
11620;SDS011;5866;49.094;11.900;2023-02-21T00:53:51;97.70;;;92.27;;
11620;SDS011;5866;49.094;11.900;2023-02-21T00:56:36;78.17;;;73.70;;
11620;SDS011;5866;49.094;11.900;2023-02-21T00:59:21;100.87;;;95.23;;
11620;SDS011;5866;49.094;11.900;2023-02-21T01:02:07;94.63;;;89.53;;
11620;SDS011;5866;49.094;11.900;2023-02-21T01:04:53;89.73;;;84.87;;
11620;SDS011;5866;49.094;11.900;2023-02-21T01:07:40;58.53;;;55.10;;
11620;SDS011;5866;49.094;11.900;2023-02-21T01:10:24;58.97;;;55.53;;
11620;SDS011;5866;49.094;11.900;2023-02-21T01:13:10;95.63;;;90.60;;
11620;SDS011;5866;49.094;11.900;2023-02-21T01:15:55;85.93;;;81.40;;
11620;SDS011;5866;49.094;11.900;2023-02-21T01:18:40;65.00;;;60.80;;
11620;SDS011;5866;49.094;11.900;2023-02-21T01:21:25;41.50;;;39.10;;
11620;SDS011;5866;49.094;11.900;2023-02-21T01:24:13;93.97;;;88.93;;
11620;SDS011;5866;49.094;11.900;2023-02-21T01:26:59;74.00;;;69.80;;
11620;SDS011;5866;49.094;11.900;2023-02-21T01:29:44;109.63;;;103.60;;
11620;SDS011;5866;49.094;11.900;2023-02-21T01:32:30;111.17;;;105.27;;
11620;SDS011;5866;49.094;11.900;2023-02-21T01:35:16;99.53;;;94.07;;
11620;SDS011;5866;49.094;11.900;2023-02-21T01:38:02;93.67;;;88.60;;
11620;SDS011;5866;49.094;11.900;2023-02-21T01:40:49;108.90;;;103.00;;
11620;SDS011;5866;49.094;11.900;2023-02-21T01:43:34;91.83;;;86.83;;
11620;SDS011;5866;49.094;11.900;2023-02-21T01:46:19;91.37;;;86.30;;
11620;SDS011;5866;49.094;11.900;2023-02-21T01:49:05;105.43;;;99.73;;
11620;SDS011;5866;49.094;11.900;2023-02-21T01:51:54;90.23;;;85.40;;
11620;SDS011;5866;49.094;11.900;2023-02-21T01:54:43;74.53;;;70.37;;
11620;SDS011;5866;49.094;11.900;2023-02-21T01:57:33;98.50;;;92.23;;
11620;SDS011;5866;49.094;11.900;2023-02-21T02:00:19;96.67;;;91.33;;
11620;SDS011;5866;49.094;11.900;2023-02-21T02:03:05;103.47;;;97.87;;
11620;SDS011;5866;49.094;11.900;2023-02-21T02:05:53;109.47;;;103.70;;
11620;SDS011;5866;49.094;11.900;2023-02-21T02:08:41;121.43;;;115.00;;
11620;SDS011;5866;49.094;11.900;2023-02-21T02:11:34;105.23;;;99.50;;
11620;SDS011;5866;49.094;11.900;2023-02-21T02:14:42;115.80;;;109.43;;
11620;SDS011;5866;49.094;11.900;2023-02-21T02:17:27;115.53;;;108.93;;
11620;SDS011;5866;49.094;11.900;2023-02-21T02:23:09;74.27;;;70.17;;
11620;SDS011;5866;49.094;11.900;2023-02-21T02:25:59;94.53;;;89.43;;
11620;SDS011;5866;49.094;11.900;2023-02-21T02:28:46;34.43;;;32.20;;
11620;SDS011;5866;49.094;11.900;2023-02-21T02:31:39;26.70;;;24.67;;
11620;SDS011;5866;49.094;11.900;2023-02-21T02:34:35;21.37;;;19.73;;
11620;SDS011;5866;49.094;11.900;2023-02-21T02:37:15;18.20;;;16.67;;
11620;SDS011;5866;49.094;11.900;2023-02-21T02:39:50;7.87;;;6.87;;
11620;SDS011;5866;49.094;11.900;2023-02-21T02:42:26;8.97;;;4.80;;
11620;SDS011;5866;49.094;11.900;2023-02-21T02:45:04;8.67;;;5.20;;
11620;SDS011;5866;49.094;11.900;2023-02-21T02:47:38;12.63;;;4.97;;
11620;SDS011;5866;49.094;11.900;2023-02-21T02:50:11;7.17;;;5.00;;
11620;SDS011;5866;49.094;11.900;2023-02-21T02:52:48;8.10;;;4.43;;
11620;SDS011;5866;49.094;11.900;2023-02-21T02:55:23;6.23;;;5.47;;
11620;SDS011;5866;49.094;11.900;2023-02-21T02:57:56;6.67;;;5.10;;
11620;SDS011;5866;49.094;11.900;2023-02-21T03:00:24;10.17;;;5.50;;
11620;SDS011;5866;49.094;11.900;2023-02-21T03:02:57;11.03;;;5.40;;
11620;SDS011;5866;49.094;11.900;2023-02-21T03:05:38;11.50;;;6.47;;
11620;SDS011;5866;49.094;11.900;2023-02-21T03:08:19;5.80;;;4.77;;
11620;SDS011;5866;49.094;11.900;2023-02-21T03:10:53;8.37;;;6.17;;
11620;SDS011;5866;49.094;11.900;2023-02-21T03:13:29;10.60;;;5.23;;
11620;SDS011;5866;49.094;11.900;2023-02-21T03:16:08;6.17;;;5.40;;
11620;SDS011;5866;49.094;11.900;2023-02-21T03:18:42;8.63;;;5.07;;
11620;SDS011;5866;49.094;11.900;2023-02-21T03:21:16;7.27;;;5.00;;
11620;SDS011;5866;49.094;11.900;2023-02-21T03:23:47;5.93;;;4.67;;
11620;SDS011;5866;49.094;11.900;2023-02-21T03:26:19;8.00;;;5.63;;
11620;SDS011;5866;49.094;11.900;2023-02-21T03:28:47;9.07;;;5.93;;
11620;SDS011;5866;49.094;11.900;2023-02-21T03:31:16;10.43;;;5.97;;
11620;SDS011;5866;49.094;11.900;2023-02-21T03:33:48;6.33;;;5.73;;
11620;SDS011;5866;49.094;11.900;2023-02-21T03:36:16;7.87;;;5.60;;
11620;SDS011;5866;49.094;11.900;2023-02-21T03:38:44;12.00;;;6.57;;
11620;SDS011;5866;49.094;11.900;2023-02-21T03:41:11;10.87;;;7.33;;
11620;SDS011;5866;49.094;11.900;2023-02-21T03:43:41;9.00;;;7.03;;
11620;SDS011;5866;49.094;11.900;2023-02-21T03:46:08;8.67;;;6.47;;
11620;SDS011;5866;49.094;11.900;2023-02-21T03:48:35;8.40;;;6.13;;
11620;SDS011;5866;49.094;11.900;2023-02-21T03:51:03;8.83;;;6.20;;
11620;SDS011;5866;49.094;11.900;2023-02-21T03:53:32;7.47;;;6.10;;
11620;SDS011;5866;49.094;11.900;2023-02-21T03:56:00;8.77;;;5.80;;
11620;SDS011;5866;49.094;11.900;2023-02-21T03:58:27;5.83;;;5.23;;
11620;SDS011;5866;49.094;11.900;2023-02-21T04:00:55;8.00;;;7.10;;
11620;SDS011;5866;49.094;11.900;2023-02-21T04:03:22;9.63;;;7.77;;
11620;SDS011;5866;49.094;11.900;2023-02-21T04:05:50;9.07;;;7.10;;
11620;SDS011;5866;49.094;11.900;2023-02-21T04:08:17;11.10;;;8.43;;
11620;SDS011;5866;49.094;11.900;2023-02-21T04:10:46;15.37;;;7.87;;
11620;SDS011;5866;49.094;11.900;2023-02-21T04:13:17;8.10;;;7.27;;
11620;SDS011;5866;49.094;11.900;2023-02-21T04:15:45;8.63;;;7.87;;
11620;SDS011;5866;49.094;11.900;2023-02-21T04:18:13;11.80;;;8.40;;
11620;SDS011;5866;49.094;11.900;2023-02-21T04:20:40;12.80;;;9.13;;
11620;SDS011;5866;49.094;11.900;2023-02-21T04:23:08;12.33;;;10.10;;
11620;SDS011;5866;49.094;11.900;2023-02-21T04:25:36;8.77;;;7.93;;
11620;SDS011;5866;49.094;11.900;2023-02-21T04:28:05;7.00;;;5.13;;
11620;SDS011;5866;49.094;11.900;2023-02-21T04:30:32;8.77;;;6.07;;
11620;SDS011;5866;49.094;11.900;2023-02-21T04:33:00;8.13;;;7.03;;
11620;SDS011;5866;49.094;11.900;2023-02-21T04:35:28;8.90;;;8.00;;
11620;SDS011;5866;49.094;11.900;2023-02-21T04:37:56;8.87;;;8.07;;
11620;SDS011;5866;49.094;11.900;2023-02-21T04:40:23;6.67;;;5.73;;
11620;SDS011;5866;49.094;11.900;2023-02-21T04:42:51;13.10;;;11.90;;
11620;SDS011;5866;49.094;11.900;2023-02-21T04:45:20;9.37;;;5.77;;
11620;SDS011;5866;49.094;11.900;2023-02-21T04:47:47;11.23;;;10.13;;
11620;SDS011;5866;49.094;11.900;2023-02-21T04:50:15;8.13;;;6.67;;
11620;SDS011;5866;49.094;11.900;2023-02-21T04:52:42;9.10;;;8.30;;
11620;SDS011;5866;49.094;11.900;2023-02-21T04:55:10;8.80;;;6.97;;
11620;SDS011;5866;49.094;11.900;2023-02-21T04:57:37;9.23;;;5.37;;
11620;SDS011;5866;49.094;11.900;2023-02-21T05:00:05;8.43;;;6.20;;
11620;SDS011;5866;49.094;11.900;2023-02-21T05:02:34;8.73;;;6.60;;
11620;SDS011;5866;49.094;11.900;2023-02-21T05:05:02;7.93;;;5.97;;
11620;SDS011;5866;49.094;11.900;2023-02-21T05:07:30;7.50;;;6.77;;
11620;SDS011;5866;49.094;11.900;2023-02-21T05:09:57;8.13;;;7.33;;
11620;SDS011;5866;49.094;11.900;2023-02-21T05:12:25;9.37;;;6.47;;
11620;SDS011;5866;49.094;11.900;2023-02-21T05:14:52;10.97;;;6.60;;
11620;SDS011;5866;49.094;11.900;2023-02-21T05:17:19;10.10;;;6.73;;
11620;SDS011;5866;49.094;11.900;2023-02-21T05:19:48;8.90;;;8.00;;
11620;SDS011;5866;49.094;11.900;2023-02-21T05:22:16;9.00;;;6.70;;
11620;SDS011;5866;49.094;11.900;2023-02-21T05:24:45;6.93;;;6.23;;
11620;SDS011;5866;49.094;11.900;2023-02-21T05:27:14;11.80;;;7.13;;
11620;SDS011;5866;49.094;11.900;2023-02-21T05:29:45;10.67;;;6.13;;
11620;SDS011;5866;49.094;11.900;2023-02-21T05:32:12;9.10;;;5.60;;
11620;SDS011;5866;49.094;11.900;2023-02-21T05:34:40;10.03;;;5.70;;
11620;SDS011;5866;49.094;11.900;2023-02-21T05:37:11;10.77;;;6.23;;
11620;SDS011;5866;49.094;11.900;2023-02-21T05:39:38;14.50;;;5.97;;
11620;SDS011;5866;49.094;11.900;2023-02-21T05:42:06;9.30;;;8.43;;
11620;SDS011;5866;49.094;11.900;2023-02-21T05:44:33;8.20;;;6.33;;
11620;SDS011;5866;49.094;11.900;2023-02-21T05:47:01;10.30;;;8.13;;
11620;SDS011;5866;49.094;11.900;2023-02-21T05:49:28;11.93;;;6.13;;
11620;SDS011;5866;49.094;11.900;2023-02-21T05:51:56;9.90;;;8.10;;
11620;SDS011;5866;49.094;11.900;2023-02-21T05:54:25;10.67;;;9.77;;
11620;SDS011;5866;49.094;11.900;2023-02-21T05:56:52;11.30;;;10.27;;
11620;SDS011;5866;49.094;11.900;2023-02-21T05:59:20;13.23;;;10.07;;
11620;SDS011;5866;49.094;11.900;2023-02-21T06:01:48;11.13;;;9.63;;
11620;SDS011;5866;49.094;11.900;2023-02-21T06:04:16;7.73;;;7.00;;
11620;SDS011;5866;49.094;11.900;2023-02-21T06:06:44;8.30;;;6.93;;
11620;SDS011;5866;49.094;11.900;2023-02-21T06:09:12;6.77;;;5.80;;
11620;SDS011;5866;49.094;11.900;2023-02-21T06:11:41;10.97;;;8.73;;
11620;SDS011;5866;49.094;11.900;2023-02-21T06:14:12;7.93;;;6.60;;
11620;SDS011;5866;49.094;11.900;2023-02-21T06:16:42;6.40;;;5.73;;
11620;SDS011;5866;49.094;11.900;2023-02-21T06:19:11;14.00;;;12.80;;
11620;SDS011;5866;49.094;11.900;2023-02-21T06:21:41;13.60;;;12.30;;
11620;SDS011;5866;49.094;11.900;2023-02-21T06:24:09;18.00;;;16.70;;
11620;SDS011;5866;49.094;11.900;2023-02-21T06:26:38;50.20;;;46.73;;
11620;SDS011;5866;49.094;11.900;2023-02-21T06:29:07;61.03;;;57.40;;
11620;SDS011;5866;49.094;11.900;2023-02-21T06:31:36;41.50;;;38.93;;
11620;SDS011;5866;49.094;11.900;2023-02-21T06:34:04;53.50;;;50.10;;
11620;SDS011;5866;49.094;11.900;2023-02-21T06:36:31;38.03;;;35.40;;
11620;SDS011;5866;49.094;11.900;2023-02-21T06:39:00;18.63;;;17.13;;
11620;SDS011;5866;49.094;11.900;2023-02-21T06:41:28;22.40;;;20.90;;
11620;SDS011;5866;49.094;11.900;2023-02-21T06:43:56;20.50;;;19.00;;
11620;SDS011;5866;49.094;11.900;2023-02-21T06:46:27;36.30;;;33.60;;
11620;SDS011;5866;49.094;11.900;2023-02-21T06:48:56;67.23;;;63.23;;
11620;SDS011;5866;49.094;11.900;2023-02-21T06:51:24;74.73;;;70.47;;
11620;SDS011;5866;49.094;11.900;2023-02-21T06:53:55;81.80;;;76.90;;
11620;SDS011;5866;49.094;11.900;2023-02-21T06:56:23;86.37;;;81.43;;
11620;SDS011;5866;49.094;11.900;2023-02-21T06:58:52;84.87;;;79.93;;
11620;SDS011;5866;49.094;11.900;2023-02-21T07:01:20;70.57;;;66.33;;
11620;SDS011;5866;49.094;11.900;2023-02-21T07:03:50;65.57;;;61.73;;
11620;SDS011;5866;49.094;11.900;2023-02-21T07:06:18;75.77;;;71.37;;
11620;SDS011;5866;49.094;11.900;2023-02-21T07:08:45;64.87;;;61.00;;
11620;SDS011;5866;49.094;11.900;2023-02-21T07:11:13;81.47;;;76.90;;
11620;SDS011;5866;49.094;11.900;2023-02-21T07:13:45;58.97;;;55.33;;
11620;SDS011;5866;49.094;11.900;2023-02-21T07:16:13;52.90;;;49.70;;
11620;SDS011;5866;49.094;11.900;2023-02-21T07:18:43;80.17;;;75.57;;
11620;SDS011;5866;49.094;11.900;2023-02-21T07:21:12;82.47;;;78.03;;
11620;SDS011;5866;49.094;11.900;2023-02-21T07:23:41;73.77;;;69.33;;
11620;SDS011;5866;49.094;11.900;2023-02-21T07:26:09;47.30;;;44.40;;
11620;SDS011;5866;49.094;11.900;2023-02-21T07:28:37;65.57;;;61.57;;
11620;SDS011;5866;49.094;11.900;2023-02-21T07:31:05;78.57;;;74.10;;
11620;SDS011;5866;49.094;11.900;2023-02-21T07:33:32;56.47;;;53.03;;
11620;SDS011;5866;49.094;11.900;2023-02-21T07:36:00;35.17;;;32.70;;
11620;SDS011;5866;49.094;11.900;2023-02-21T07:38:29;51.80;;;48.30;;
11620;SDS011;5866;49.094;11.900;2023-02-21T07:40:57;77.47;;;73.13;;
11620;SDS011;5866;49.094;11.900;2023-02-21T07:43:27;36.30;;;33.63;;
11620;SDS011;5866;49.094;11.900;2023-02-21T07:45:56;77.40;;;72.97;;
11620;SDS011;5866;49.094;11.900;2023-02-21T07:48:24;89.63;;;84.60;;
11620;SDS011;5866;49.094;11.900;2023-02-21T07:50:51;26.00;;;24.37;;
11620;SDS011;5866;49.094;11.900;2023-02-21T07:53:19;8.17;;;6.50;;
11620;SDS011;5866;49.094;11.900;2023-02-21T07:55:48;14.18;;;12.77;;
11620;SDS011;5866;49.094;11.900;2023-02-21T07:58:15;9.67;;;8.87;;
11620;SDS011;5866;49.094;11.900;2023-02-21T08:00:46;12.23;;;10.98;;
11620;SDS011;5866;49.094;11.900;2023-02-21T08:03:13;15.63;;;14.30;;
11620;SDS011;5866;49.094;11.900;2023-02-21T08:05:41;21.95;;;19.75;;
11620;SDS011;5866;49.094;11.900;2023-02-21T08:08:08;10.25;;;9.43;;
11620;SDS011;5866;49.094;11.900;2023-02-21T08:10:37;9.30;;;4.95;;
11620;SDS011;5866;49.094;11.900;2023-02-21T08:13:06;6.32;;;4.50;;
11620;SDS011;5866;49.094;11.900;2023-02-21T08:15:33;6.43;;;4.90;;
11620;SDS011;5866;49.094;11.900;2023-02-21T08:18:01;7.40;;;3.97;;
11620;SDS011;5866;49.094;11.900;2023-02-21T08:20:28;7.15;;;4.50;;
11620;SDS011;5866;49.094;11.900;2023-02-21T08:22:56;8.45;;;5.90;;
11620;SDS011;5866;49.094;11.900;2023-02-21T08:25:23;5.40;;;4.03;;
11620;SDS011;5866;49.094;11.900;2023-02-21T08:27:51;7.95;;;5.63;;
11620;SDS011;5866;49.094;11.900;2023-02-21T08:30:21;6.13;;;4.32;;
11620;SDS011;5866;49.094;11.900;2023-02-21T08:32:50;9.23;;;4.35;;
11620;SDS011;5866;49.094;11.900;2023-02-21T08:35:18;10.43;;;4.38;;
11620;SDS011;5866;49.094;11.900;2023-02-21T08:37:46;5.30;;;4.80;;
11620;SDS011;5866;49.094;11.900;2023-02-21T08:40:17;8.52;;;4.88;;
11620;SDS011;5866;49.094;11.900;2023-02-21T08:42:47;7.25;;;5.35;;
11620;SDS011;5866;49.094;11.900;2023-02-21T08:45:15;7.05;;;5.35;;
11620;SDS011;5866;49.094;11.900;2023-02-21T08:47:46;8.18;;;4.40;;
11620;SDS011;5866;49.094;11.900;2023-02-21T08:50:14;6.25;;;4.40;;
11620;SDS011;5866;49.094;11.900;2023-02-21T08:52:41;6.80;;;5.68;;
11620;SDS011;5866;49.094;11.900;2023-02-21T08:55:09;7.72;;;6.75;;
11620;SDS011;5866;49.094;11.900;2023-02-21T08:57:36;6.93;;;4.68;;
11620;SDS011;5866;49.094;11.900;2023-02-21T09:00:04;6.88;;;4.28;;
11620;SDS011;5866;49.094;11.900;2023-02-21T09:02:35;6.03;;;5.40;;
11620;SDS011;5866;49.094;11.900;2023-02-21T09:05:07;6.13;;;4.13;;
11620;SDS011;5866;49.094;11.900;2023-02-21T09:07:35;8.10;;;4.78;;
11620;SDS011;5866;49.094;11.900;2023-02-21T09:10:02;4.53;;;3.78;;
11620;SDS011;5866;49.094;11.900;2023-02-21T09:12:31;6.45;;;3.95;;
11620;SDS011;5866;49.094;11.900;2023-02-21T09:14:59;3.92;;;3.55;;
11620;SDS011;5866;49.094;11.900;2023-02-21T09:17:26;4.32;;;3.88;;
11620;SDS011;5866;49.094;11.900;2023-02-21T09:19:54;5.88;;;3.80;;
11620;SDS011;5866;49.094;11.900;2023-02-21T09:22:23;6.15;;;4.00;;
11620;SDS011;5866;49.094;11.900;2023-02-21T09:24:50;6.47;;;4.03;;
11620;SDS011;5866;49.094;11.900;2023-02-21T09:27:17;6.03;;;4.03;;
11620;SDS011;5866;49.094;11.900;2023-02-21T09:29:45;5.63;;;4.00;;
11620;SDS011;5866;49.094;11.900;2023-02-21T09:32:13;5.28;;;3.90;;
11620;SDS011;5866;49.094;11.900;2023-02-21T09:34:40;5.68;;;3.88;;
11620;SDS011;5866;49.094;11.900;2023-02-21T09:37:08;4.10;;;3.63;;
11620;SDS011;5866;49.094;11.900;2023-02-21T09:39:37;5.28;;;4.10;;
11620;SDS011;5866;49.094;11.900;2023-02-21T09:42:05;4.43;;;3.88;;
11620;SDS011;5866;49.094;11.900;2023-02-21T09:44:33;7.22;;;4.20;;
11620;SDS011;5866;49.094;11.900;2023-02-21T09:47:01;5.45;;;3.60;;
11620;SDS011;5866;49.094;11.900;2023-02-21T09:49:32;3.83;;;3.28;;
11620;SDS011;5866;49.094;11.900;2023-02-21T09:52:03;6.05;;;4.00;;
11620;SDS011;5866;49.094;11.900;2023-02-21T09:54:34;4.85;;;3.65;;
11620;SDS011;5866;49.094;11.900;2023-02-21T09:57:09;4.45;;;3.95;;
11620;SDS011;5866;49.094;11.900;2023-02-21T09:59:40;5.40;;;3.97;;
11620;SDS011;5866;49.094;11.900;2023-02-21T10:02:16;5.45;;;4.78;;
11620;SDS011;5866;49.094;11.900;2023-02-21T10:04:58;7.20;;;4.63;;
11620;SDS011;5866;49.094;11.900;2023-02-21T10:07:34;4.72;;;4.30;;
11620;SDS011;5866;49.094;11.900;2023-02-21T10:10:13;4.40;;;3.60;;
11620;SDS011;5866;49.094;11.900;2023-02-21T10:12:45;5.22;;;3.58;;
11620;SDS011;5866;49.094;11.900;2023-02-21T10:15:28;5.35;;;3.70;;
11620;SDS011;5866;49.094;11.900;2023-02-21T10:18:08;6.03;;;4.18;;
11620;SDS011;5866;49.094;11.900;2023-02-21T10:20:46;4.80;;;4.03;;
11620;SDS011;5866;49.094;11.900;2023-02-21T10:23:18;4.72;;;3.97;;
11620;SDS011;5866;49.094;11.900;2023-02-21T10:25:53;8.40;;;4.78;;
11620;SDS011;5866;49.094;11.900;2023-02-21T10:28:24;6.18;;;4.25;;
11620;SDS011;5866;49.094;11.900;2023-02-21T10:30:54;4.50;;;3.92;;
11620;SDS011;5866;49.094;11.900;2023-02-21T10:33:25;8.15;;;4.50;;
11620;SDS011;5866;49.094;11.900;2023-02-21T10:35:52;6.28;;;4.97;;
11620;SDS011;5866;49.094;11.900;2023-02-21T10:38:23;5.60;;;4.10;;
11620;SDS011;5866;49.094;11.900;2023-02-21T10:40:54;5.05;;;4.07;;
11620;SDS011;5866;49.094;11.900;2023-02-21T10:43:25;4.90;;;4.38;;
11620;SDS011;5866;49.094;11.900;2023-02-21T10:45:58;6.85;;;4.07;;
11620;SDS011;5866;49.094;11.900;2023-02-21T10:48:33;5.25;;;3.90;;
11620;SDS011;5866;49.094;11.900;2023-02-21T10:51:06;6.60;;;4.40;;
11620;SDS011;5866;49.094;11.900;2023-02-21T10:53:36;4.50;;;4.10;;
11620;SDS011;5866;49.094;11.900;2023-02-21T10:56:07;4.95;;;3.60;;
11620;SDS011;5866;49.094;11.900;2023-02-21T10:58:43;4.43;;;3.47;;
11620;SDS011;5866;49.094;11.900;2023-02-21T11:01:13;5.57;;;3.97;;
11620;SDS011;5866;49.094;11.900;2023-02-21T11:03:44;5.65;;;3.80;;
11620;SDS011;5866;49.094;11.900;2023-02-21T11:06:26;4.28;;;3.88;;
11620;SDS011;5866;49.094;11.900;2023-02-21T11:08:59;7.07;;;4.22;;
11620;SDS011;5866;49.094;11.900;2023-02-21T11:11:33;5.45;;;3.90;;
11620;SDS011;5866;49.094;11.900;2023-02-21T11:14:06;4.97;;;3.80;;
11620;SDS011;5866;49.094;11.900;2023-02-21T11:16:46;3.72;;;3.10;;
11620;SDS011;5866;49.094;11.900;2023-02-21T11:19:40;4.55;;;3.50;;
11620;SDS011;5866;49.094;11.900;2023-02-21T11:22:09;5.60;;;4.10;;
11620;SDS011;5866;49.094;11.900;2023-02-21T11:24:45;3.55;;;3.25;;
11620;SDS011;5866;49.094;11.900;2023-02-21T11:27:17;3.78;;;3.28;;
11620;SDS011;5866;49.094;11.900;2023-02-21T11:29:46;3.75;;;3.38;;
11620;SDS011;5866;49.094;11.900;2023-02-21T11:32:20;3.75;;;3.40;;
11620;SDS011;5866;49.094;11.900;2023-02-21T11:34:58;3.78;;;3.42;;
11620;SDS011;5866;49.094;11.900;2023-02-21T11:37:27;4.47;;;4.03;;
11620;SDS011;5866;49.094;11.900;2023-02-21T11:39:57;5.82;;;3.60;;
11620;SDS011;5866;49.094;11.900;2023-02-21T11:42:29;4.15;;;3.00;;
11620;SDS011;5866;49.094;11.900;2023-02-21T11:47:51;5.15;;;3.30;;
11620;SDS011;5866;49.094;11.900;2023-02-21T11:50:24;3.75;;;3.28;;
11620;SDS011;5866;49.094;11.900;2023-02-21T11:52:55;4.13;;;3.72;;
11620;SDS011;5866;49.094;11.900;2023-02-21T11:55:30;5.28;;;3.15;;
11620;SDS011;5866;49.094;11.900;2023-02-21T11:58:04;3.83;;;3.05;;
11620;SDS011;5866;49.094;11.900;2023-02-21T12:00:40;3.30;;;3.00;;
11620;SDS011;5866;49.094;11.900;2023-02-21T12:03:40;3.33;;;3.00;;
11620;SDS011;5866;49.094;11.900;2023-02-21T12:06:19;3.55;;;3.20;;
11620;SDS011;5866;49.094;11.900;2023-02-21T12:08:55;3.72;;;3.05;;
11620;SDS011;5866;49.094;11.900;2023-02-21T12:11:33;4.60;;;3.20;;
11620;SDS011;5866;49.094;11.900;2023-02-21T12:14:18;4.18;;;3.10;;
11620;SDS011;5866;49.094;11.900;2023-02-21T12:16:59;3.53;;;2.53;;
11620;SDS011;5866;49.094;11.900;2023-02-21T12:19:45;3.50;;;3.05;;
11620;SDS011;5866;49.094;11.900;2023-02-21T12:22:28;3.22;;;2.88;;
11620;SDS011;5866;49.094;11.900;2023-02-21T12:25:10;5.13;;;3.15;;
11620;SDS011;5866;49.094;11.900;2023-02-21T12:27:47;2.97;;;2.78;;
11620;SDS011;5866;49.094;11.900;2023-02-21T12:30:26;3.38;;;3.00;;
11620;SDS011;5866;49.094;11.900;2023-02-21T12:33:08;3.50;;;3.00;;
11620;SDS011;5866;49.094;11.900;2023-02-21T12:35:57;3.65;;;3.05;;
11620;SDS011;5866;49.094;11.900;2023-02-21T12:38:42;3.15;;;2.78;;
11620;SDS011;5866;49.094;11.900;2023-02-21T12:41:22;4.20;;;3.20;;
11620;SDS011;5866;49.094;11.900;2023-02-21T12:44:11;4.63;;;3.42;;
11620;SDS011;5866;49.094;11.900;2023-02-21T12:46:44;3.35;;;2.97;;
11620;SDS011;5866;49.094;11.900;2023-02-21T12:49:18;3.28;;;2.97;;
11620;SDS011;5866;49.094;11.900;2023-02-21T12:51:51;3.58;;;2.63;;
11620;SDS011;5866;49.094;11.900;2023-02-21T12:54:29;4.55;;;3.03;;
11620;SDS011;5866;49.094;11.900;2023-02-21T12:57:06;3.58;;;3.00;;
11620;SDS011;5866;49.094;11.900;2023-02-21T12:59:41;3.40;;;3.10;;
11620;SDS011;5866;49.094;11.900;2023-02-21T13:02:23;3.20;;;2.88;;
11620;SDS011;5866;49.094;11.900;2023-02-21T13:05:02;3.47;;;2.80;;
11620;SDS011;5866;49.094;11.900;2023-02-21T13:07:37;3.63;;;2.80;;
11620;SDS011;5866;49.094;11.900;2023-02-21T13:10:12;2.88;;;2.60;;
11620;SDS011;5866;49.094;11.900;2023-02-21T13:12:45;2.92;;;2.72;;
11620;SDS011;5866;49.094;11.900;2023-02-21T13:15:18;3.63;;;2.85;;
11620;SDS011;5866;49.094;11.900;2023-02-21T13:17:50;3.30;;;3.00;;
11620;SDS011;5866;49.094;11.900;2023-02-21T13:20:23;3.35;;;2.97;;
11620;SDS011;5866;49.094;11.900;2023-02-21T13:26:04;5.07;;;2.58;;
11620;SDS011;5866;49.094;11.900;2023-02-21T13:28:50;2.97;;;2.58;;
11620;SDS011;5866;49.094;11.900;2023-02-21T13:31:18;3.42;;;2.80;;
11620;SDS011;5866;49.094;11.900;2023-02-21T13:33:50;5.47;;;2.97;;
11620;SDS011;5866;49.094;11.900;2023-02-21T13:36:20;3.42;;;3.13;;
11620;SDS011;5866;49.094;11.900;2023-02-21T13:38:58;3.30;;;3.00;;
11620;SDS011;5866;49.094;11.900;2023-02-21T13:41:28;3.30;;;3.10;;
11620;SDS011;5866;49.094;11.900;2023-02-21T13:43:59;3.50;;;3.20;;
11620;SDS011;5866;49.094;11.900;2023-02-21T13:49:40;4.03;;;3.55;;
11620;SDS011;5866;49.094;11.900;2023-02-21T13:55:22;3.78;;;3.47;;
11620;SDS011;5866;49.094;11.900;2023-02-21T14:01:37;2.78;;;2.58;;
11620;SDS011;5866;49.094;11.900;2023-02-21T14:07:40;3.50;;;3.08;;
11620;SDS011;5866;49.094;11.900;2023-02-21T14:10:16;3.58;;;3.17;;
11620;SDS011;5866;49.094;11.900;2023-02-21T14:12:53;4.15;;;3.08;;
11620;SDS011;5866;49.094;11.900;2023-02-21T14:15:22;3.88;;;3.15;;
11620;SDS011;5866;49.094;11.900;2023-02-21T14:17:50;2.90;;;2.63;;
11620;SDS011;5866;49.094;11.900;2023-02-21T14:20:20;3.10;;;2.80;;
11620;SDS011;5866;49.094;11.900;2023-02-21T14:22:49;3.47;;;3.17;;
11620;SDS011;5866;49.094;11.900;2023-02-21T14:25:20;3.20;;;3.00;;
11620;SDS011;5866;49.094;11.900;2023-02-21T14:27:50;3.28;;;3.08;;
11620;SDS011;5866;49.094;11.900;2023-02-21T14:30:29;7.93;;;3.10;;
11620;SDS011;5866;49.094;11.900;2023-02-21T14:33:06;5.70;;;2.88;;
11620;SDS011;5866;49.094;11.900;2023-02-21T14:35:46;2.78;;;2.58;;
11620;SDS011;5866;49.094;11.900;2023-02-21T14:38:22;4.15;;;2.72;;
11620;SDS011;5866;49.094;11.900;2023-02-21T14:40:58;3.97;;;2.55;;
11620;SDS011;5866;49.094;11.900;2023-02-21T14:43:38;3.03;;;2.75;;
11620;SDS011;5866;49.094;11.900;2023-02-21T14:52:26;2.63;;;2.42;;
11620;SDS011;5866;49.094;11.900;2023-02-21T14:55:25;3.15;;;2.60;;
11620;SDS011;5866;49.094;11.900;2023-02-21T14:58:18;3.45;;;2.60;;
11620;SDS011;5866;49.094;11.900;2023-02-21T15:01:04;3.20;;;2.60;;
11620;SDS011;5866;49.094;11.900;2023-02-21T15:03:41;2.85;;;2.65;;
11620;SDS011;5866;49.094;11.900;2023-02-21T15:06:16;4.18;;;2.95;;
11620;SDS011;5866;49.094;11.900;2023-02-21T15:08:48;4.53;;;2.60;;
11620;SDS011;5866;49.094;11.900;2023-02-21T15:11:18;4.28;;;2.50;;
11620;SDS011;5866;49.094;11.900;2023-02-21T15:14:10;3.78;;;2.80;;
11620;SDS011;5866;49.094;11.900;2023-02-21T15:16:44;3.38;;;3.10;;
11620;SDS011;5866;49.094;11.900;2023-02-21T15:19:24;3.22;;;2.83;;
11620;SDS011;5866;49.094;11.900;2023-02-21T15:22:12;4.55;;;2.95;;
11620;SDS011;5866;49.094;11.900;2023-02-21T15:24:57;2.90;;;2.70;;
11620;SDS011;5866;49.094;11.900;2023-02-21T15:27:25;3.90;;;3.30;;
11620;SDS011;5866;49.094;11.900;2023-02-21T15:30:02;3.38;;;3.10;;
11620;SDS011;5866;49.094;11.900;2023-02-21T15:32:33;3.60;;;3.30;;
11620;SDS011;5866;49.094;11.900;2023-02-21T15:35:01;4.68;;;3.08;;
11620;SDS011;5866;49.094;11.900;2023-02-21T15:37:31;3.65;;;2.85;;
11620;SDS011;5866;49.094;11.900;2023-02-21T15:40:04;3.20;;;2.80;;
11620;SDS011;5866;49.094;11.900;2023-02-21T15:42:37;3.83;;;3.40;;
11620;SDS011;5866;49.094;11.900;2023-02-21T15:45:06;3.17;;;2.83;;
11620;SDS011;5866;49.094;11.900;2023-02-21T15:47:41;3.38;;;3.08;;